Time;durP1;ratioP1;P1;durP2;ratioP2;P2;SDS_P1;SDS_P2;PMS_P1;PMS_P2;Temp;Humidity;BMP_temperature;BMP_pressure;BME280_temperature;BME280_humidity;BME280_pressure;Samples;Min_cycle;Max_cycle;Signal;HPM_P1;HPM_P2
2021/08/09 00:00:07;;;;;;;8.82;3.55;;;;;;;13.91;90.99;101141.91;1056712;28;20043;-72
2021/08/09 00:00:40;;;;;;;7.20;3.67;;;;;;;13.88;90.90;101129.75;1052417;28;20055;-72
2021/08/09 00:01:12;;;;;;;8.07;3.35;;;;;;;13.87;91.57;101132.34;1052195;28;20051;-72
2021/08/09 00:01:43;;;;;;;8.27;4.00;;;;;;;13.88;91.43;101134.94;1053336;28;20051;-71
2021/08/09 00:02:15;;;;;;;8.48;4.13;;;;;;;13.91;90.36;101127.16;1056539;28;20048;-72
2021/08/09 00:02:46;;;;;;;7.82;3.70;;;;;;;13.90;90.87;101129.78;1052413;28;20044;-71
2021/08/09 00:03:18;;;;;;;9.43;3.95;;;;;;;13.87;91.11;101132.34;1052274;28;20059;-73
2021/08/09 00:03:50;;;;;;;11.77;4.38;;;;;;;13.89;90.31;101141.00;1052300;28;20059;-72
2021/08/09 00:04:21;;;;;;;8.45;3.42;;;;;;;13.93;89.89;101133.25;1046395;28;20052;-72
2021/08/09 00:04:53;;;;;;;10.10;3.97;;;;;;;13.89;90.07;101133.22;1057031;28;20055;-71
2021/08/09 00:05:24;;;;;;;7.15;3.70;;;;;;;13.88;90.64;101139.28;1056567;28;20044;-72
2021/08/09 00:05:56;;;;;;;10.15;4.60;;;;;;;13.85;91.04;101139.28;1056867;28;20051;-73
2021/08/09 00:06:27;;;;;;;9.18;4.28;;;;;;;13.86;91.17;101141.88;1060420;28;20050;-71
2021/08/09 00:07:00;;;;;;;6.47;3.58;;;;;;;13.84;90.95;101141.00;1056482;28;20048;-72
2021/08/09 00:07:31;;;;;;;13.00;3.58;;;;;;;13.88;90.41;101141.88;1056500;28;20399;-72
2021/08/09 00:08:03;;;;;;;9.20;3.78;;;;;;;13.90;90.73;101142.78;1056487;28;20044;-72
2021/08/09 00:08:35;;;;;;;5.32;3.20;;;;;;;13.87;91.30;101135.81;1056589;28;20510;-71
2021/08/09 00:09:06;;;;;;;8.25;3.80;;;;;;;13.86;91.06;101139.28;1052188;28;20122;-72
2021/08/09 00:09:38;;;;;;;8.32;3.65;;;;;;;13.82;91.29;101147.03;1052769;28;20056;-73
2021/08/09 00:10:10;;;;;;;7.88;3.70;;;;;;;13.77;91.73;101140.06;1056432;28;20502;-73
2021/08/09 00:10:41;;;;;;;8.77;4.10;;;;;;;13.74;91.65;101141.81;1056533;28;20419;-73
2021/08/09 00:11:13;;;;;;;6.03;3.70;;;;;;;13.75;91.36;101146.13;1052263;28;20052;-72
2021/08/09 00:11:44;;;;;;;10.07;4.15;;;;;;;13.80;92.30;101141.84;1052347;28;20059;-72
2021/08/09 00:12:16;;;;;;;9.40;4.40;;;;;;;13.79;91.65;101140.97;1052869;28;20047;-73
2021/08/09 00:12:47;;;;;;;6.95;4.25;;;;;;;13.81;91.37;101145.31;1052836;28;20044;-71
2021/08/09 00:13:19;;;;;;;13.52;5.05;;;;;;;13.82;91.20;101139.25;1052466;28;20046;-72
2021/08/09 00:13:51;;;;;;;13.23;4.30;;;;;;;13.82;91.06;101147.91;1052195;28;20044;-72
2021/08/09 00:14:22;;;;;;;8.55;4.53;;;;;;;13.88;90.85;101144.47;1052536;28;20048;-71
2021/08/09 00:14:54;;;;;;;8.50;4.05;;;;;;;13.91;91.12;101140.19;1056599;28;20055;-72
2021/08/09 00:15:26;;;;;;;9.05;4.40;;;;;;;13.86;91.37;101147.06;1052407;28;20052;-72
2021/08/09 00:15:57;;;;;;;13.07;4.82;;;;;;;13.82;91.41;101147.03;1048566;28;20532;-73
2021/08/09 00:16:29;;;;;;;12.55;4.97;;;;;;;13.84;91.06;101147.91;1049609;28;20051;-72
2021/08/09 00:17:01;;;;;;;9.98;4.60;;;;;;;13.83;91.31;101147.03;1053766;28;20084;-72
2021/08/09 00:25:45;;;;;;;9.15;4.18;;;;;;;13.77;92.02;101152.22;1056024;28;20042;-72
2021/08/09 00:26:32;;;;;;;15.63;5.97;;;;;;;13.80;92.47;101149.66;1046031;28;20052;-72
2021/08/09 00:27:08;;;;;;;9.18;4.07;;;;;;;13.79;92.38;101156.56;1052843;28;20059;-72
2021/08/09 00:27:40;;;;;;;11.18;5.05;;;;;;;13.77;92.43;101149.59;1052935;28;20052;-72
2021/08/09 00:28:11;;;;;;;10.80;4.72;;;;;;;13.77;92.62;101157.41;1055902;28;20161;-72
2021/08/09 00:28:42;;;;;;;13.40;5.45;;;;;;;13.72;92.60;101156.50;1057025;28;20055;-73
2021/08/09 00:29:14;;;;;;;9.43;4.75;;;;;;;13.72;92.43;101153.91;1053034;28;20044;-72
2021/08/09 00:29:45;;;;;;;19.10;5.55;;;;;;;13.70;92.48;101150.44;1057075;28;20067;-71
2021/08/09 00:30:17;;;;;;;13.38;4.80;;;;;;;13.72;93.18;101154.78;1053019;28;20055;-72
2021/08/09 00:30:48;;;;;;;11.10;4.85;;;;;;;13.72;92.35;101159.09;1053445;28;20051;-71
2021/08/09 00:31:20;;;;;;;8.45;4.38;;;;;;;13.70;92.90;101150.44;1057083;28;20062;-72
2021/08/09 00:31:51;;;;;;;8.52;4.18;;;;;;;13.71;92.94;101152.16;1057221;28;20076;-72
2021/08/09 00:32:23;;;;;;;12.77;5.25;;;;;;;13.70;93.02;101159.09;1057271;28;20047;-71
2021/08/09 00:32:55;;;;;;;5.95;4.45;;;;;;;13.67;92.92;101150.41;1053153;28;20061;-71
2021/08/09 00:33:26;;;;;;;8.35;4.20;;;;;;;13.66;92.77;101153.88;1049519;28;20071;-72
2021/08/09 00:33:58;;;;;;;10.68;4.50;;;;;;;13.72;92.50;101156.50;1052844;28;20068;-72
2021/08/09 00:34:30;;;;;;;11.98;5.10;;;;;;;13.72;93.12;101152.16;1049223;28;20512;-72
2021/08/09 00:35:03;;;;;;;7.93;4.30;;;;;;;13.70;92.90;101158.22;1049445;28;20048;-71
2021/08/09 00:35:37;;;;;;;10.55;4.85;;;;;;;13.70;92.37;101155.63;1053074;28;20043;-71
2021/08/09 00:36:08;;;;;;;12.18;4.32;;;;;;;13.68;93.11;101159.97;1053990;28;20075;-72
2021/08/09 00:36:40;;;;;;;8.48;4.47;;;;;;;13.64;93.09;101156.47;1053977;28;20492;-72
2021/08/09 00:37:11;;;;;;;11.45;5.05;;;;;;;13.62;93.18;101157.31;1053081;28;20048;-71
2021/08/09 00:37:43;;;;;;;7.90;3.78;;;;;;;13.66;93.10;101151.25;1052984;28;20055;-72
2021/08/09 00:38:14;;;;;;;10.27;4.47;;;;;;;13.65;93.32;101157.31;1053385;28;20048;-71
2021/08/09 00:38:46;;;;;;;10.55;4.60;;;;;;;13.63;93.15;101152.13;1057197;28;20043;-71
2021/08/09 00:39:18;;;;;;;10.95;4.93;;;;;;;13.61;92.76;101161.63;1057240;28;20048;-71
2021/08/09 00:39:49;;;;;;;14.13;5.13;;;;;;;13.61;92.68;101155.56;1053084;28;20044;-71
2021/08/09 00:40:21;;;;;;;10.25;4.40;;;;;;;13.60;93.12;101161.63;1053055;28;20048;-71
2021/08/09 00:40:52;;;;;;;9.60;4.07;;;;;;;13.61;93.12;101161.63;1053125;28;20571;-72
2021/08/09 00:41:24;;;;;;;11.10;4.55;;;;;;;13.60;93.23;101156.41;1057259;28;20384;-72
2021/08/09 00:41:56;;;;;;;6.97;4.10;;;;;;;13.58;93.31;101156.41;1057295;28;20046;-71
2021/08/09 00:42:27;;;;;;;12.55;4.60;;;;;;;13.60;93.56;101161.63;1057240;28;20048;-71
2021/08/09 00:42:59;;;;;;;13.57;5.25;;;;;;;13.56;92.97;101157.25;1053032;28;20436;-71
2021/08/09 00:43:30;;;;;;;8.55;4.30;;;;;;;13.56;94.03;101152.06;1049331;28;20044;-71
2021/08/09 00:44:02;;;;;;;10.88;4.22;;;;;;;13.53;93.68;101161.56;1053006;28;20051;-71
2021/08/09 00:44:35;;;;;;;8.90;5.10;;;;;;;13.52;93.57;101158.97;1053150;28;20048;-72
2021/08/09 00:45:06;;;;;;;13.05;5.22;;;;;;;13.56;93.75;101158.16;1052899;28;20507;-71
2021/08/09 00:45:38;;;;;;;9.88;4.95;;;;;;;13.55;93.24;101156.38;1053067;28;20055;-71
2021/08/09 00:46:10;;;;;;;9.93;4.22;;;;;;;13.57;93.55;101161.63;1053781;28;20048;-71
2021/08/09 00:46:45;;;;;;;6.45;4.07;;;;;;;13.57;93.23;101159.88;1053635;28;20146;-71
2021/08/09 00:47:16;;;;;;;9.45;4.53;;;;;;;13.60;93.70;101166.81;1057018;28;20121;-71
2021/08/09 00:47:48;;;;;;;8.50;4.05;;;;;;;13.56;93.25;101165.03;1053139;28;20044;-72
2021/08/09 00:48:19;;;;;;;11.85;4.47;;;;;;;13.57;93.22;101161.63;1053956;28;20059;-71
2021/08/09 00:48:50;;;;;;;9.05;4.95;;;;;;;13.61;93.62;101161.63;1052887;28;20044;-72
2021/08/09 00:49:22;;;;;;;7.85;4.13;;;;;;;13.61;93.79;101160.75;1053246;28;20059;-72
2021/08/09 00:49:53;;;;;;;13.15;4.45;;;;;;;13.60;93.48;101165.09;1052976;28;20500;-72
2021/08/09 00:50:25;;;;;;;8.35;4.13;;;;;;;13.58;93.98;101163.34;1049203;28;20109;-71
2021/08/09 00:50:57;;;;;;;10.00;4.35;;;;;;;13.56;93.78;101165.94;1052886;28;20048;-72
2021/08/09 00:51:29;;;;;;;10.32;4.60;;;;;;;13.52;94.39;101167.63;1053439;28;20515;-71
2021/08/09 00:52:01;;;;;;;8.02;4.70;;;;;;;13.47;93.74;101163.25;1057273;28;20483;-72
2021/08/09 00:52:33;;;;;;;9.18;4.10;;;;;;;13.51;93.60;101162.44;1057389;28;20048;-72
2021/08/09 00:53:04;;;;;;;8.85;4.75;;;;;;;13.50;94.05;101163.28;1057181;28;20407;-72
2021/08/09 00:53:36;;;;;;;12.43;4.90;;;;;;;13.47;93.45;101160.66;1052904;28;20590;-72
2021/08/09 00:54:10;;;;;;;9.75;4.95;;;;;;;13.45;93.85;101168.47;1052773;28;20052;-72
2021/08/09 00:54:41;;;;;;;9.50;5.22;;;;;;;13.46;94.52;101172.78;1049381;28;20048;-72
2021/08/09 00:55:13;;;;;;;8.85;4.28;;;;;;;13.46;94.73;101167.59;1053033;28;20091;-71
2021/08/09 00:55:46;;;;;;;13.05;5.25;;;;;;;13.44;94.70;101168.41;1049421;28;20060;-72
2021/08/09 00:56:18;;;;;;;7.07;3.83;;;;;;;13.39;94.57;101165.81;1053605;28;20055;-72
2021/08/09 00:56:49;;;;;;;13.60;4.63;;;;;;;13.42;93.95;101162.34;1057239;28;20040;-71
2021/08/09 00:57:21;;;;;;;12.75;4.95;;;;;;;13.47;93.90;101168.47;1057110;28;20047;-71
2021/08/09 00:57:53;;;;;;;13.20;5.70;;;;;;;13.49;93.95;101167.59;1057478;28;20051;-72
2021/08/09 00:58:25;;;;;;;11.45;4.38;;;;;;;13.50;93.77;101174.56;1057168;28;20051;-73
2021/08/09 00:58:58;;;;;;;8.25;4.55;;;;;;;13.45;93.70;101165.84;1057257;28;20054;-72
2021/08/09 00:59:30;;;;;;;9.52;4.63;;;;;;;13.41;93.57;101171.88;1053062;28;20051;-72
2021/08/09 01:00:03;;;;;;;10.65;4.63;;;;;;;13.43;94.16;101170.16;1048781;28;20052;-71
2021/08/09 01:00:34;;;;;;;12.70;5.32;;;;;;;13.43;94.45;101164.97;1049789;28;20049;-71
2021/08/09 01:01:06;;;;;;;12.05;5.05;;;;;;;13.42;94.09;101168.41;1053756;28;20102;-72
2021/08/09 01:01:38;;;;;;;11.05;4.97;;;;;;;13.43;94.83;101172.75;1053625;28;20177;-72
2021/08/09 01:02:09;;;;;;;11.93;4.88;;;;;;;13.43;94.54;101172.75;1057081;28;20040;-72
2021/08/09 01:02:43;;;;;;;11.68;4.95;;;;;;;13.51;93.87;101173.69;1052996;28;20047;-72
2021/08/09 01:03:14;;;;;;;9.85;4.97;;;;;;;13.52;93.04;101169.38;1053674;28;20051;-72
2021/08/09 01:03:49;;;;;;;10.65;5.40;;;;;;;13.51;93.25;101172.84;1056998;28;20047;-72
2021/08/09 01:04:20;;;;;;;9.93;4.57;;;;;;;13.47;93.62;101181.47;1057041;28;20048;-73
2021/08/09 01:04:52;;;;;;;12.07;5.47;;;;;;;13.46;93.56;101177.13;1057190;28;20058;-72
2021/08/09 01:05:23;;;;;;;12.77;5.47;;;;;;;13.47;93.55;101179.72;1056882;28;20048;-72
2021/08/09 01:05:55;;;;;;;9.80;4.65;;;;;;;13.47;93.82;101171.06;1057103;28;20044;-72
2021/08/09 01:06:26;;;;;;;10.60;4.95;;;;;;;13.48;93.98;101172.78;1057118;28;20044;-72
2021/08/09 01:06:58;;;;;;;9.25;5.80;;;;;;;13.46;93.96;101174.53;1057155;28;20506;-72
2021/08/09 01:07:40;;;;;;;18.13;6.45;;;;;;;13.44;93.94;101166.72;1057224;28;20050;-72
2021/08/09 01:08:32;;;;;;;12.00;5.03;;;;;;;13.44;93.79;101171.03;1057162;28;20066;-72
2021/08/09 01:09:19;;;;;;;7.85;5.00;;;;;;;13.40;94.36;101171.88;1057181;28;20055;-72
2021/08/09 01:10:01;;;;;;;8.73;4.75;;;;;;;13.39;94.29;101173.59;1052952;28;20055;-72
2021/08/09 01:10:56;;;;;;;13.05;5.00;;;;;;;13.41;94.57;101169.28;1056775;28;20050;-72
2021/08/09 01:11:39;;;;;;;11.52;5.15;;;;;;;13.41;94.06;101173.63;1057196;28;20048;-72
2021/08/09 01:12:21;;;;;;;11.48;4.80;;;;;;;13.45;93.52;101170.19;1053865;28;20484;-73
2021/08/09 01:13:10;;;;;;;11.82;5.13;;;;;;;13.43;93.30;101172.75;1053011;28;20054;-71
2021/08/09 01:13:53;;;;;;;11.27;4.55;;;;;;;13.45;92.92;101165.84;1052911;28;20435;-73
2021/08/09 01:14:42;;;;;;;10.70;4.35;;;;;;;13.43;93.22;101167.56;1057009;28;20388;-72
2021/08/09 01:15:25;;;;;;;11.18;4.75;;;;;;;13.42;93.05;101163.22;1061283;27;20109;-72
2021/08/09 01:16:04;;;;;;;9.70;4.55;;;;;;;13.43;93.62;101164.09;1057221;28;20055;-73
2021/08/09 01:16:37;;;;;;;7.95;4.47;;;;;;;13.41;93.23;101171.88;1056970;28;20048;-73
2021/08/09 01:17:10;;;;;;;8.57;4.55;;;;;;;13.39;92.90;101173.59;1057090;28;20047;-72
2021/08/09 01:17:45;;;;;;;4.85;4.20;;;;;;;13.37;93.31;101164.91;1054803;28;20052;-72
2021/08/09 01:18:20;;;;;;;11.20;4.60;;;;;;;13.37;93.25;101164.91;1052917;28;20044;-73
2021/08/09 01:18:57;;;;;;;10.43;4.40;;;;;;;13.36;93.46;101167.50;1052936;28;20055;-72
2021/08/09 01:19:49;;;;;;;7.40;4.70;;;;;;;13.36;93.79;101172.69;1055044;28;20404;-73
2021/08/09 01:20:34;;;;;;;12.02;4.70;;;;;;;13.37;93.75;101164.03;1057086;28;20047;-73
2021/08/09 01:21:06;;;;;;;11.85;4.47;;;;;;;13.37;93.15;101166.63;1052977;28;20054;-74
2021/08/09 01:21:38;;;;;;;11.13;5.60;;;;;;;13.41;93.08;101169.28;1048625;28;20060;-73
2021/08/09 01:22:41;;;;;;;10.27;5.03;;;;;;;13.43;93.01;101159.75;1051311;28;20060;-72
2021/08/09 01:23:50;;;;;;;8.02;4.50;;;;;;;13.43;93.23;101167.56;1057131;28;20054;-72
2021/08/09 01:24:32;;;;;;;10.38;4.35;;;;;;;13.42;93.51;101160.63;1054176;28;20043;-72
2021/08/09 01:25:45;;;;;;;12.57;5.03;;;;;;;13.42;94.07;101171.00;1057029;28;20044;-72
2021/08/09 01:26:51;;;;;;;14.10;5.20;;;;;;;13.32;93.94;101170.91;1049017;28;20048;-72
2021/08/09 01:27:27;;;;;;;14.18;5.22;;;;;;;13.32;94.34;101165.72;1056594;28;20047;-72
2021/08/09 01:28:01;;;;;;;9.50;5.05;;;;;;;13.31;93.79;101164.00;1056917;28;20057;-72
2021/08/09 01:28:33;;;;;;;10.35;4.60;;;;;;;13.30;93.83;101173.50;1057048;28;20043;-72
2021/08/09 01:29:08;;;;;;;11.13;4.53;;;;;;;13.29;94.41;101170.91;1057051;28;20047;-72
2021/08/09 01:29:44;;;;;;;12.80;4.90;;;;;;;13.32;93.75;101169.19;1052891;28;20400;-72
2021/08/09 01:30:16;;;;;;;25.23;5.70;;;;;;;13.29;94.15;101165.72;1052832;28;20048;-72
2021/08/09 01:30:49;;;;;;;7.95;4.72;;;;;;;13.32;94.48;101173.53;1052864;28;20052;-72
2021/08/09 01:31:23;;;;;;;9.82;4.72;;;;;;;13.31;94.51;101172.66;1054196;28;20052;-73
2021/08/09 01:31:57;;;;;;;9.77;5.03;;;;;;;13.30;94.54;101172.66;1057047;28;20518;-73
2021/08/09 01:32:30;;;;;;;10.90;4.70;;;;;;;13.31;93.85;101177.84;1057083;28;20054;-73
2021/08/09 01:33:01;;;;;;;17.80;6.00;;;;;;;13.30;94.09;101177.84;1057074;28;20054;-72
2021/08/09 01:33:34;;;;;;;13.52;5.38;;;;;;;13.30;94.65;101170.03;1057022;28;20050;-74
2021/08/09 01:34:08;;;;;;;10.70;6.13;;;;;;;13.33;94.19;101170.97;1053607;28;20412;-72
2021/08/09 01:34:41;;;;;;;14.57;5.45;;;;;;;13.35;93.70;101171.81;1057105;28;20062;-72
2021/08/09 01:35:15;;;;;;;13.38;5.50;;;;;;;13.38;94.02;101170.97;1056991;28;20055;-73
2021/08/09 01:35:47;;;;;;;10.05;5.88;;;;;;;13.37;93.69;101174.44;1054187;28;20048;-73
2021/08/09 01:36:20;;;;;;;14.27;5.53;;;;;;;13.34;94.06;101170.09;1052868;28;20063;-73
2021/08/09 01:36:54;;;;;;;10.93;6.13;;;;;;;13.39;93.74;101171.00;1056964;28;20039;-72
2021/08/09 01:37:28;;;;;;;12.27;5.63;;;;;;;13.32;94.10;101166.59;1057926;27;20066;-72
2021/08/09 01:38:03;;;;;;;11.02;4.90;;;;;;;13.30;93.81;101170.91;1062506;27;20058;-73
2021/08/09 01:38:35;;;;;;;9.48;5.75;;;;;;;13.31;94.17;101171.78;1059702;27;20054;-72
2021/08/09 01:39:09;;;;;;;11.18;5.43;;;;;;;13.29;94.89;101178.72;1052789;28;20076;-72
2021/08/09 01:39:40;;;;;;;13.52;4.95;;;;;;;13.25;94.97;101173.47;1052779;28;20078;-72
2021/08/09 01:40:13;;;;;;;10.73;4.70;;;;;;;13.24;95.24;101173.47;1049446;28;20065;-72
2021/08/09 01:40:47;;;;;;;13.10;5.38;;;;;;;13.26;94.64;101174.34;1057904;27;20046;-72
2021/08/09 01:41:18;;;;;;;10.00;5.30;;;;;;;13.25;94.37;101170.88;1061239;27;20047;-72
2021/08/09 01:41:52;;;;;;;16.50;5.28;;;;;;;13.22;94.88;101168.25;1057689;27;20070;-73
2021/08/09 01:42:23;;;;;;;12.35;4.57;;;;;;;13.24;94.67;101170.88;1056022;28;20043;-72
2021/08/09 01:42:55;;;;;;;10.15;5.95;;;;;;;13.26;94.60;101170.00;1052697;28;20059;-72
2021/08/09 01:43:29;;;;;;;14.73;5.68;;;;;;;13.30;94.47;101168.31;1053513;28;20519;-73
2021/08/09 01:44:02;;;;;;;8.93;5.55;;;;;;;13.26;94.19;101172.59;1056679;28;20048;-73
2021/08/09 01:44:35;;;;;;;9.52;4.90;;;;;;;13.29;94.46;101169.19;1057115;28;20144;-72
2021/08/09 01:45:07;;;;;;;8.20;5.45;;;;;;;13.28;94.32;101171.78;1052718;28;20044;-72
2021/08/09 01:45:39;;;;;;;12.02;5.30;;;;;;;13.29;95.11;101173.50;1052770;28;20063;-72
2021/08/09 01:46:12;;;;;;;9.95;5.03;;;;;;;13.23;94.84;101164.78;1057739;27;20120;-72
2021/08/09 01:46:46;;;;;;;9.95;5.20;;;;;;;13.24;95.40;101178.66;1062223;27;20055;-72
2021/08/09 01:47:17;;;;;;;13.88;5.78;;;;;;;13.21;94.92;101170.81;1065505;27;20042;-72
2021/08/09 01:47:51;;;;;;;11.65;5.13;;;;;;;13.18;94.83;101175.97;1060301;27;20047;-72
2021/08/09 01:48:23;;;;;;;12.20;4.88;;;;;;;13.22;94.82;101177.78;1057094;28;20051;-72
2021/08/09 01:48:55;;;;;;;7.40;4.60;;;;;;;13.25;94.44;101168.28;1052764;28;20056;-73
2021/08/09 01:49:28;;;;;;;14.05;4.95;;;;;;;13.23;94.47;101176.91;1052740;28;20044;-72
2021/08/09 01:50:02;;;;;;;10.52;5.10;;;;;;;13.28;93.79;101170.03;1049380;28;20068;-73
2021/08/09 01:50:33;;;;;;;8.63;5.10;;;;;;;13.27;93.88;101173.47;1052718;28;20048;-72
2021/08/09 01:51:05;;;;;;;11.07;4.43;;;;;;;13.27;94.08;101173.47;1049541;28;20404;-72
2021/08/09 01:51:37;;;;;;;7.53;4.32;;;;;;;13.27;93.65;101176.06;1053544;28;20377;-72
2021/08/09 01:52:10;;;;;;;12.45;5.47;;;;;;;13.25;94.52;101180.38;1052727;28;20044;-72
2021/08/09 01:52:43;;;;;;;12.95;5.10;;;;;;;13.21;94.28;101170.81;1049295;28;20044;-72
2021/08/09 01:53:15;;;;;;;10.88;5.65;;;;;;;13.22;94.15;101180.38;1052835;28;20453;-72
2021/08/09 01:53:46;;;;;;;8.85;5.07;;;;;;;13.26;94.27;101172.59;1049329;28;20432;-72
2021/08/09 01:54:18;;;;;;;14.07;4.72;;;;;;;13.23;94.05;101180.38;1052539;28;20051;-72
2021/08/09 01:54:50;;;;;;;9.90;5.50;;;;;;;13.21;94.01;101174.28;1052891;28;20056;-73
2021/08/09 01:55:23;;;;;;;9.68;4.85;;;;;;;13.21;94.41;101179.47;1049076;28;20055;-71
2021/08/09 01:55:56;;;;;;;13.88;6.53;;;;;;;13.23;93.75;101188.19;1049435;28;20060;-73
2021/08/09 01:56:27;;;;;;;14.98;5.57;;;;;;;13.22;93.80;101176.06;1048392;28;20048;-72
2021/08/09 01:56:59;;;;;;;12.85;5.00;;;;;;;13.25;94.11;101172.59;1049515;28;20045;-72
2021/08/09 01:57:31;;;;;;;11.50;5.60;;;;;;;13.25;94.03;101180.38;1052598;28;20048;-73
2021/08/09 01:58:03;;;;;;;15.55;5.55;;;;;;;13.30;93.54;101178.72;1053407;28;20063;-73
2021/08/09 01:58:35;;;;;;;8.52;4.88;;;;;;;13.28;93.51;101171.78;1056806;28;20452;-71
2021/08/09 01:59:06;;;;;;;9.30;4.80;;;;;;;13.31;92.99;101169.19;1053360;28;20044;-73
2021/08/09 01:59:38;;;;;;;8.63;4.68;;;;;;;13.32;93.77;101169.19;1056882;28;20048;-72
2021/08/09 02:00:13;;;;;;;11.05;5.38;;;;;;;13.31;93.77;101170.06;1057065;28;20043;-71
2021/08/09 02:00:45;;;;;;;11.43;5.22;;;;;;;13.29;94.00;101174.38;1056867;28;20052;-71
2021/08/09 02:01:20;;;;;;;11.40;4.97;;;;;;;13.24;93.71;101173.47;1052743;28;20056;-71
2021/08/09 02:01:52;;;;;;;14.25;5.70;;;;;;;13.25;93.45;101173.47;1054183;28;20048;-72
2021/08/09 02:02:28;;;;;;;7.97;4.88;;;;;;;13.26;93.91;101171.75;1056918;28;20505;-72
2021/08/09 02:03:00;;;;;;;17.55;6.13;;;;;;;13.24;94.51;101170.88;1052703;28;20048;-73
2021/08/09 02:03:31;;;;;;;17.70;5.32;;;;;;;13.24;93.98;101174.31;1053881;28;20048;-73
2021/08/09 02:04:03;;;;;;;16.92;6.50;;;;;;;13.25;94.87;101178.66;1056713;28;20051;-73
2021/08/09 02:04:34;;;;;;;12.20;6.38;;;;;;;13.21;95.03;101176.88;1056886;28;20058;-72
2021/08/09 02:05:07;;;;;;;13.27;6.07;;;;;;;13.22;94.50;101173.47;1057116;28;20475;-73
2021/08/09 02:05:39;;;;;;;11.48;5.40;;;;;;;13.19;94.65;101169.91;1056979;28;20046;-72
2021/08/09 02:06:10;;;;;;;17.50;6.45;;;;;;;13.17;94.74;101187.22;1056967;28;20051;-72
2021/08/09 02:06:43;;;;;;;15.45;5.82;;;;;;;13.16;94.54;101180.25;1056899;28;20058;-72
2021/08/09 02:07:14;;;;;;;15.85;5.95;;;;;;;13.15;94.89;101182.00;1052697;28;20393;-71
2021/08/09 02:07:47;;;;;;;14.75;5.38;;;;;;;13.16;95.33;101180.25;1053085;28;20040;-72
2021/08/09 02:08:19;;;;;;;12.38;5.53;;;;;;;13.14;95.11;101171.59;1056972;28;20044;-73
2021/08/09 02:08:51;;;;;;;10.93;5.03;;;;;;;13.15;94.69;101178.53;1056916;28;20494;-72
2021/08/09 02:09:22;;;;;;;10.98;5.10;;;;;;;13.19;94.84;101177.72;1056682;28;20066;-72
2021/08/09 02:09:54;;;;;;;11.82;6.25;;;;;;;13.17;94.65;101184.63;1056964;28;20051;-71
2021/08/09 02:10:29;;;;;;;18.05;5.95;;;;;;;13.17;94.68;101179.44;1056855;28;20048;-72
2021/08/09 02:11:26;;;;;;;13.10;4.90;;;;;;;13.21;94.29;101182.09;1056774;28;20051;-72
2021/08/09 02:12:06;;;;;;;17.17;6.57;;;;;;;13.23;94.29;101180.38;1056891;28;20052;-71
2021/08/09 02:12:46;;;;;;;7.32;4.95;;;;;;;13.19;93.97;101181.19;1061204;27;20047;-72
2021/08/09 02:13:26;;;;;;;11.60;5.05;;;;;;;13.16;94.59;101177.66;1061022;27;20054;-71
2021/08/09 02:14:03;;;;;;;11.32;5.45;;;;;;;13.13;94.82;101181.13;1060794;27;20502;-72
2021/08/09 02:14:53;;;;;;;8.57;4.93;;;;;;;13.20;94.82;101185.50;1057482;27;20124;-71
2021/08/09 02:15:58;;;;;;;15.48;5.85;;;;;;;13.21;94.00;101184.69;1056843;28;20055;-72
2021/08/09 02:16:41;;;;;;;12.80;5.65;;;;;;;13.21;94.01;101181.22;1053731;28;20080;-72
2021/08/09 02:17:16;;;;;;;12.27;6.22;;;;;;;13.18;94.50;101189.84;1056809;28;20055;-72
2021/08/09 02:17:53;;;;;;;12.52;6.63;;;;;;;13.23;94.86;101182.13;1052740;28;20048;-73
2021/08/09 02:18:31;;;;;;;12.98;6.28;;;;;;;13.24;94.28;101189.91;1052622;28;20047;-72
2021/08/09 02:19:16;;;;;;;9.57;4.80;;;;;;;13.23;93.79;101188.19;1054635;28;20048;-72
2021/08/09 02:19:59;;;;;;;9.30;5.30;;;;;;;13.22;93.76;101189.03;1056864;28;20427;-71
2021/08/09 02:20:34;;;;;;;10.13;5.78;;;;;;;13.22;94.47;101182.97;1056706;28;20047;-72
2021/08/09 02:21:10;;;;;;;15.35;5.38;;;;;;;13.22;94.86;101185.59;1056846;28;20048;-72
2021/08/09 02:21:59;;;;;;;12.00;4.90;;;;;;;13.18;94.43;101178.56;1056802;28;20055;-72
2021/08/09 02:22:38;;;;;;;12.55;5.13;;;;;;;13.18;94.58;101189.84;1052677;28;20047;-71
2021/08/09 02:23:20;;;;;;;19.33;5.95;;;;;;;13.20;93.96;101184.63;1052774;28;20385;-71
2021/08/09 02:23:55;;;;;;;18.90;5.25;;;;;;;13.20;93.89;101179.44;1052206;28;20407;-72
2021/08/09 02:24:30;;;;;;;9.23;5.05;;;;;;;13.29;94.08;101186.50;1051903;28;20047;-71
2021/08/09 02:25:08;;;;;;;10.10;4.97;;;;;;;13.32;93.55;101187.38;1052738;28;20044;-71
2021/08/09 02:25:44;;;;;;;16.38;6.38;;;;;;;13.30;93.36;101183.03;1050811;28;20404;-71
2021/08/09 02:26:29;;;;;;;13.90;5.32;;;;;;;13.26;93.76;101187.31;1051056;28;20048;-72
2021/08/09 02:27:17;;;;;;;13.85;5.10;;;;;;;13.24;94.21;101184.72;1048217;28;20052;-72
2021/08/09 02:28:05;;;;;;;12.10;4.72;;;;;;;13.18;93.87;101182.03;1052926;28;20047;-72
2021/08/09 02:28:40;;;;;;;9.02;4.57;;;;;;;13.17;94.13;101182.91;1053316;28;20044;-72
2021/08/09 02:29:15;;;;;;;14.25;6.05;;;;;;;13.20;93.61;101174.25;1052521;28;20051;-72
2021/08/09 02:29:49;;;;;;;15.40;5.55;;;;;;;13.22;93.98;101185.59;1052597;28;20048;-72
2021/08/09 02:30:24;;;;;;;9.27;4.50;;;;;;;13.24;93.60;101182.13;1050138;28;20056;-72
2021/08/09 02:30:59;;;;;;;10.23;5.03;;;;;;;13.25;93.53;101175.19;1052756;28;20052;-73
2021/08/09 02:31:32;;;;;;;12.20;4.60;;;;;;;13.23;93.79;101184.72;1048384;28;20057;-72
2021/08/09 02:32:07;;;;;;;12.35;5.28;;;;;;;13.24;93.42;101171.72;1045698;28;20134;-73
2021/08/09 02:32:40;;;;;;;12.50;5.45;;;;;;;13.27;93.61;101178.66;1045951;28;20060;-72
2021/08/09 02:33:12;;;;;;;10.85;5.15;;;;;;;13.27;94.16;101178.66;1049729;28;20048;-73
2021/08/09 02:33:43;;;;;;;12.23;5.57;;;;;;;13.27;93.38;101183.88;1053252;28;20044;-72
2021/08/09 02:34:19;;;;;;;13.20;5.63;;;;;;;13.27;93.28;101181.25;1056749;28;20052;-73
2021/08/09 02:34:53;;;;;;;13.02;4.95;;;;;;;13.25;93.41;101181.25;1053813;28;20048;-72
2021/08/09 02:35:27;;;;;;;11.30;5.07;;;;;;;13.24;93.45;101176.94;1056528;28;20047;-72
2021/08/09 02:36:01;;;;;;;10.90;5.10;;;;;;;13.22;93.61;101188.19;1056805;28;20044;-74
2021/08/09 02:36:33;;;;;;;7.97;4.97;;;;;;;13.21;93.94;101178.63;1056631;28;20106;-72
2021/08/09 02:37:06;;;;;;;13.38;4.93;;;;;;;13.22;93.93;101181.25;1056610;28;20051;-73
2021/08/09 02:37:38;;;;;;;12.77;5.07;;;;;;;13.19;93.74;101181.19;1056434;28;20052;-72
2021/08/09 02:38:10;;;;;;;17.63;6.32;;;;;;;13.18;93.53;101182.03;1053470;28;20052;-72
2021/08/09 02:38:44;;;;;;;8.52;5.22;;;;;;;13.25;93.38;101183.00;1056620;28;20365;-72
2021/08/09 02:39:17;;;;;;;10.52;4.82;;;;;;;13.24;93.09;101173.47;1056831;28;20055;-72
2021/08/09 02:39:49;;;;;;;10.23;5.18;;;;;;;13.26;93.83;101179.53;1056839;28;20047;-72
2021/08/09 02:40:22;;;;;;;11.13;4.88;;;;;;;13.26;93.43;101176.94;1056822;28;20048;-73
2021/08/09 02:40:53;;;;;;;16.40;5.93;;;;;;;13.30;92.78;101170.03;1056882;28;20435;-73
2021/08/09 02:41:26;;;;;;;13.27;5.43;;;;;;;13.30;93.09;101181.31;1056858;28;20051;-73
2021/08/09 02:41:59;;;;;;;13.13;6.15;;;;;;;13.29;92.95;101174.38;1056633;28;20051;-73
2021/08/09 02:42:31;;;;;;;14.30;4.78;;;;;;;13.31;92.33;101176.97;1056770;28;20047;-73
2021/08/09 02:43:03;;;;;;;7.38;4.13;;;;;;;13.30;93.13;101177.84;1052442;28;20048;-74
2021/08/09 02:43:35;;;;;;;14.60;4.20;;;;;;;13.29;92.64;101183.91;1053051;28;20044;-73
2021/08/09 02:44:08;;;;;;;13.50;5.18;;;;;;;13.33;92.25;101178.75;1056828;28;20044;-73
2021/08/09 02:44:41;;;;;;;14.85;4.90;;;;;;;13.29;92.33;101176.97;1056670;28;20050;-72
2021/08/09 02:45:13;;;;;;;12.65;4.53;;;;;;;13.27;92.63;101181.25;1056781;28;20384;-72
2021/08/09 02:45:47;;;;;;;21.65;6.25;;;;;;;13.23;93.52;101187.31;1052601;28;20048;-73
2021/08/09 02:46:19;;;;;;;15.98;4.88;;;;;;;13.26;92.72;101184.72;1048330;28;20048;-73
2021/08/09 02:46:51;;;;;;;9.40;4.07;;;;;;;13.26;92.67;101182.13;1049275;28;20067;-72
2021/08/09 02:47:23;;;;;;;11.73;4.82;;;;;;;13.27;92.34;101186.47;1053473;28;20047;-73